sensor_id;sensor_type;location;lat;lon;timestamp;P1;durP1;ratioP1;P2;durP2;ratioP2
21505;SDS011;10914;48.886;9.394;2022-11-21T00:00:20;24.23;;;23.02;;
21505;SDS011;10914;48.886;9.394;2022-11-21T00:02:46;24.00;;;22.75;;
21505;SDS011;10914;48.886;9.394;2022-11-21T00:05:12;23.70;;;22.60;;
21505;SDS011;10914;48.886;9.394;2022-11-21T00:07:37;24.30;;;23.10;;
21505;SDS011;10914;48.886;9.394;2022-11-21T00:10:02;24.30;;;23.17;;
21505;SDS011;10914;48.886;9.394;2022-11-21T00:12:27;24.27;;;23.08;;
21505;SDS011;10914;48.886;9.394;2022-11-21T00:14:52;24.30;;;23.10;;
21505;SDS011;10914;48.886;9.394;2022-11-21T00:17:18;24.95;;;23.65;;
21505;SDS011;10914;48.886;9.394;2022-11-21T00:19:43;24.13;;;23.02;;
21505;SDS011;10914;48.886;9.394;2022-11-21T00:22:08;24.13;;;23.02;;
21505;SDS011;10914;48.886;9.394;2022-11-21T00:24:33;24.30;;;23.20;;
21505;SDS011;10914;48.886;9.394;2022-11-21T00:26:58;24.57;;;23.37;;
21505;SDS011;10914;48.886;9.394;2022-11-21T00:29:24;25.10;;;23.75;;
21505;SDS011;10914;48.886;9.394;2022-11-21T00:31:49;23.90;;;22.80;;
21505;SDS011;10914;48.886;9.394;2022-11-21T00:34:14;23.77;;;22.67;;
21505;SDS011;10914;48.886;9.394;2022-11-21T00:36:40;23.58;;;22.48;;
21505;SDS011;10914;48.886;9.394;2022-11-21T00:39:05;24.10;;;23.00;;
21505;SDS011;10914;48.886;9.394;2022-11-21T00:41:30;24.90;;;23.47;;
21505;SDS011;10914;48.886;9.394;2022-11-21T00:43:56;24.17;;;22.92;;
21505;SDS011;10914;48.886;9.394;2022-11-21T00:46:21;24.92;;;23.83;;
21505;SDS011;10914;48.886;9.394;2022-11-21T00:48:46;24.70;;;23.30;;
21505;SDS011;10914;48.886;9.394;2022-11-21T00:51:11;25.67;;;24.47;;
21505;SDS011;10914;48.886;9.394;2022-11-21T00:53:36;28.10;;;26.67;;
21505;SDS011;10914;48.886;9.394;2022-11-21T00:56:02;26.33;;;25.13;;
21505;SDS011;10914;48.886;9.394;2022-11-21T00:58:27;25.77;;;24.58;;
21505;SDS011;10914;48.886;9.394;2022-11-21T01:01:00;25.92;;;24.77;;
21505;SDS011;10914;48.886;9.394;2022-11-21T01:03:25;25.55;;;24.45;;
21505;SDS011;10914;48.886;9.394;2022-11-21T01:05:50;25.40;;;24.20;;
21505;SDS011;10914;48.886;9.394;2022-11-21T01:08:16;25.60;;;24.50;;
21505;SDS011;10914;48.886;9.394;2022-11-21T01:10:41;25.90;;;24.70;;
21505;SDS011;10914;48.886;9.394;2022-11-21T01:13:06;24.83;;;23.73;;
21505;SDS011;10914;48.886;9.394;2022-11-21T01:15:32;25.30;;;24.10;;
21505;SDS011;10914;48.886;9.394;2022-11-21T01:17:57;24.60;;;23.42;;
21505;SDS011;10914;48.886;9.394;2022-11-21T01:20:23;25.02;;;23.92;;
21505;SDS011;10914;48.886;9.394;2022-11-21T01:22:48;25.10;;;23.97;;
21505;SDS011;10914;48.886;9.394;2022-11-21T01:25:13;25.65;;;24.45;;
21505;SDS011;10914;48.886;9.394;2022-11-21T01:27:38;25.38;;;24.08;;
21505;SDS011;10914;48.886;9.394;2022-11-21T01:30:03;25.23;;;24.13;;
21505;SDS011;10914;48.886;9.394;2022-11-21T01:32:29;26.02;;;24.83;;
21505;SDS011;10914;48.886;9.394;2022-11-21T01:34:54;27.92;;;26.63;;
21505;SDS011;10914;48.886;9.394;2022-11-21T01:37:19;27.38;;;26.05;;
21505;SDS011;10914;48.886;9.394;2022-11-21T01:39:44;27.25;;;26.05;;
21505;SDS011;10914;48.886;9.394;2022-11-21T01:42:10;32.15;;;30.60;;
21505;SDS011;10914;48.886;9.394;2022-11-21T01:44:46;26.17;;;24.88;;
21505;SDS011;10914;48.886;9.394;2022-11-21T01:47:11;26.45;;;25.25;;
21505;SDS011;10914;48.886;9.394;2022-11-21T01:49:37;27.08;;;25.70;;
21505;SDS011;10914;48.886;9.394;2022-11-21T01:52:08;26.00;;;24.80;;
21505;SDS011;10914;48.886;9.394;2022-11-21T01:54:36;27.85;;;26.50;;
21505;SDS011;10914;48.886;9.394;2022-11-21T01:57:11;28.05;;;26.75;;
21505;SDS011;10914;48.886;9.394;2022-11-21T02:02:08;26.17;;;24.88;;
21505;SDS011;10914;48.886;9.394;2022-11-21T02:04:34;24.40;;;23.20;;
21505;SDS011;10914;48.886;9.394;2022-11-21T02:07:01;24.70;;;23.42;;
21505;SDS011;10914;48.886;9.394;2022-11-21T02:09:26;24.60;;;23.35;;
21505;SDS011;10914;48.886;9.394;2022-11-21T02:12:06;25.05;;;23.75;;
21505;SDS011;10914;48.886;9.394;2022-11-21T02:14:32;24.83;;;23.55;;
21505;SDS011;10914;48.886;9.394;2022-11-21T02:16:59;24.55;;;23.45;;
21505;SDS011;10914;48.886;9.394;2022-11-21T02:19:27;23.45;;;22.35;;
21505;SDS011;10914;48.886;9.394;2022-11-21T02:24:28;24.33;;;23.13;;
21505;SDS011;10914;48.886;9.394;2022-11-21T02:26:54;24.38;;;23.17;;
21505;SDS011;10914;48.886;9.394;2022-11-21T02:29:19;24.98;;;23.85;;
21505;SDS011;10914;48.886;9.394;2022-11-21T02:31:44;26.10;;;24.73;;
21505;SDS011;10914;48.886;9.394;2022-11-21T02:34:10;26.70;;;25.45;;
21505;SDS011;10914;48.886;9.394;2022-11-21T02:39:07;24.85;;;23.75;;
21505;SDS011;10914;48.886;9.394;2022-11-21T02:41:34;27.38;;;25.98;;
21505;SDS011;10914;48.886;9.394;2022-11-21T02:44:03;26.10;;;24.90;;
21505;SDS011;10914;48.886;9.394;2022-11-21T02:46:30;25.75;;;24.50;;
21505;SDS011;10914;48.886;9.394;2022-11-21T02:48:57;24.80;;;23.60;;
21505;SDS011;10914;48.886;9.394;2022-11-21T02:51:23;24.83;;;23.58;;
21505;SDS011;10914;48.886;9.394;2022-11-21T02:53:48;25.33;;;23.93;;
21505;SDS011;10914;48.886;9.394;2022-11-21T02:56:13;24.38;;;23.27;;
21505;SDS011;10914;48.886;9.394;2022-11-21T02:58:38;25.60;;;24.30;;
21505;SDS011;10914;48.886;9.394;2022-11-21T03:01:04;25.85;;;24.38;;
21505;SDS011;10914;48.886;9.394;2022-11-21T03:03:29;25.02;;;23.73;;
21505;SDS011;10914;48.886;9.394;2022-11-21T03:05:54;25.02;;;23.80;;
21505;SDS011;10914;48.886;9.394;2022-11-21T03:08:20;24.90;;;23.70;;
21505;SDS011;10914;48.886;9.394;2022-11-21T03:10:45;24.20;;;23.10;;
21505;SDS011;10914;48.886;9.394;2022-11-21T03:13:10;24.63;;;23.47;;
21505;SDS011;10914;48.886;9.394;2022-11-21T03:15:35;24.27;;;23.17;;
21505;SDS011;10914;48.886;9.394;2022-11-21T03:18:01;24.80;;;23.50;;
21505;SDS011;10914;48.886;9.394;2022-11-21T03:20:27;24.88;;;23.75;;
21505;SDS011;10914;48.886;9.394;2022-11-21T03:22:52;24.50;;;23.40;;
21505;SDS011;10914;48.886;9.394;2022-11-21T03:25:18;23.85;;;22.73;;
21505;SDS011;10914;48.886;9.394;2022-11-21T03:27:43;24.10;;;23.00;;
21505;SDS011;10914;48.886;9.394;2022-11-21T03:30:09;24.38;;;23.27;;
21505;SDS011;10914;48.886;9.394;2022-11-21T03:32:34;23.90;;;22.70;;
21505;SDS011;10914;48.886;9.394;2022-11-21T03:35:00;24.40;;;23.30;;
21505;SDS011;10914;48.886;9.394;2022-11-21T03:37:25;23.73;;;22.63;;
21505;SDS011;10914;48.886;9.394;2022-11-21T03:39:50;23.83;;;22.83;;
21505;SDS011;10914;48.886;9.394;2022-11-21T03:42:15;23.50;;;22.50;;
21505;SDS011;10914;48.886;9.394;2022-11-21T03:44:40;24.67;;;23.50;;
21505;SDS011;10914;48.886;9.394;2022-11-21T03:47:05;25.00;;;23.90;;
21505;SDS011;10914;48.886;9.394;2022-11-21T03:49:31;24.92;;;23.80;;
21505;SDS011;10914;48.886;9.394;2022-11-21T03:51:56;24.92;;;23.73;;
21505;SDS011;10914;48.886;9.394;2022-11-21T03:54:21;25.83;;;24.52;;
21505;SDS011;10914;48.886;9.394;2022-11-21T03:56:47;23.98;;;22.88;;
21505;SDS011;10914;48.886;9.394;2022-11-21T03:59:12;24.30;;;23.20;;
21505;SDS011;10914;48.886;9.394;2022-11-21T04:01:38;23.73;;;22.63;;
21505;SDS011;10914;48.886;9.394;2022-11-21T04:04:03;23.95;;;22.85;;
21505;SDS011;10914;48.886;9.394;2022-11-21T04:06:29;24.40;;;23.05;;
21505;SDS011;10914;48.886;9.394;2022-11-21T04:08:55;23.45;;;22.25;;
21505;SDS011;10914;48.886;9.394;2022-11-21T04:11:20;24.45;;;23.33;;
21505;SDS011;10914;48.886;9.394;2022-11-21T04:13:47;24.40;;;23.30;;
21505;SDS011;10914;48.886;9.394;2022-11-21T04:16:12;23.90;;;22.80;;
21505;SDS011;10914;48.886;9.394;2022-11-21T04:18:37;24.17;;;23.08;;
21505;SDS011;10914;48.886;9.394;2022-11-21T04:21:04;24.75;;;23.48;;
21505;SDS011;10914;48.886;9.394;2022-11-21T04:23:29;24.17;;;22.98;;
21505;SDS011;10914;48.886;9.394;2022-11-21T04:25:54;25.13;;;24.00;;
21505;SDS011;10914;48.886;9.394;2022-11-21T04:28:20;24.00;;;22.80;;
21505;SDS011;10914;48.886;9.394;2022-11-21T04:30:45;24.33;;;23.17;;
21505;SDS011;10914;48.886;9.394;2022-11-21T04:33:11;24.17;;;22.98;;
21505;SDS011;10914;48.886;9.394;2022-11-21T04:35:37;23.92;;;22.80;;
21505;SDS011;10914;48.886;9.394;2022-11-21T04:38:02;24.45;;;23.35;;
21505;SDS011;10914;48.886;9.394;2022-11-21T04:40:27;25.60;;;24.40;;
21505;SDS011;10914;48.886;9.394;2022-11-21T04:42:53;23.77;;;22.58;;
21505;SDS011;10914;48.886;9.394;2022-11-21T04:45:18;24.48;;;23.38;;
21505;SDS011;10914;48.886;9.394;2022-11-21T04:47:44;24.45;;;23.23;;
21505;SDS011;10914;48.886;9.394;2022-11-21T04:50:11;25.85;;;24.65;;
21505;SDS011;10914;48.886;9.394;2022-11-21T04:52:37;23.95;;;22.85;;
21505;SDS011;10914;48.886;9.394;2022-11-21T04:55:02;24.40;;;23.10;;
21505;SDS011;10914;48.886;9.394;2022-11-21T04:57:27;24.83;;;23.60;;
21505;SDS011;10914;48.886;9.394;2022-11-21T04:59:53;24.25;;;23.15;;
21505;SDS011;10914;48.886;9.394;2022-11-21T05:02:18;24.70;;;23.50;;
21505;SDS011;10914;48.886;9.394;2022-11-21T05:04:43;25.50;;;24.27;;
21505;SDS011;10914;48.886;9.394;2022-11-21T05:07:09;26.20;;;25.00;;
21505;SDS011;10914;48.886;9.394;2022-11-21T05:09:34;24.92;;;23.83;;
21505;SDS011;10914;48.886;9.394;2022-11-21T05:11:59;24.63;;;23.52;;
21505;SDS011;10914;48.886;9.394;2022-11-21T05:14:43;24.35;;;23.10;;
21505;SDS011;10914;48.886;9.394;2022-11-21T05:17:08;24.67;;;23.27;;
21505;SDS011;10914;48.886;9.394;2022-11-21T05:19:33;24.63;;;23.42;;
21505;SDS011;10914;48.886;9.394;2022-11-21T05:21:59;24.05;;;22.85;;
21505;SDS011;10914;48.886;9.394;2022-11-21T05:24:24;24.30;;;23.00;;
21505;SDS011;10914;48.886;9.394;2022-11-21T05:26:49;24.83;;;23.50;;
21505;SDS011;10914;48.886;9.394;2022-11-21T05:29:14;24.00;;;22.90;;
21505;SDS011;10914;48.886;9.394;2022-11-21T05:31:39;25.60;;;24.20;;
21505;SDS011;10914;48.886;9.394;2022-11-21T05:34:04;25.90;;;24.70;;
21505;SDS011;10914;48.886;9.394;2022-11-21T05:36:30;24.63;;;23.15;;
21505;SDS011;10914;48.886;9.394;2022-11-21T05:38:55;25.38;;;24.00;;
21505;SDS011;10914;48.886;9.394;2022-11-21T05:41:20;25.27;;;23.98;;
21505;SDS011;10914;48.886;9.394;2022-11-21T05:43:45;25.45;;;23.90;;
21505;SDS011;10914;48.886;9.394;2022-11-21T05:46:11;24.40;;;23.10;;
21505;SDS011;10914;48.886;9.394;2022-11-21T05:48:37;24.73;;;23.42;;
21505;SDS011;10914;48.886;9.394;2022-11-21T05:51:04;24.30;;;23.15;;
21505;SDS011;10914;48.886;9.394;2022-11-21T05:53:30;24.60;;;23.38;;
21505;SDS011;10914;48.886;9.394;2022-11-21T05:55:55;24.10;;;22.90;;
21505;SDS011;10914;48.886;9.394;2022-11-21T05:58:20;24.80;;;23.60;;
21505;SDS011;10914;48.886;9.394;2022-11-21T06:00:45;25.15;;;23.80;;
21505;SDS011;10914;48.886;9.394;2022-11-21T06:03:11;25.02;;;23.73;;
21505;SDS011;10914;48.886;9.394;2022-11-21T06:05:52;24.33;;;23.05;;
21505;SDS011;10914;48.886;9.394;2022-11-21T06:08:17;25.52;;;24.20;;
21505;SDS011;10914;48.886;9.394;2022-11-21T06:10:43;25.58;;;24.20;;
21505;SDS011;10914;48.886;9.394;2022-11-21T06:13:08;25.17;;;23.88;;
21505;SDS011;10914;48.886;9.394;2022-11-21T06:16:07;25.63;;;24.33;;
21505;SDS011;10914;48.886;9.394;2022-11-21T06:21:04;25.40;;;24.15;;
21505;SDS011;10914;48.886;9.394;2022-11-21T06:23:30;24.75;;;23.20;;
21505;SDS011;10914;48.886;9.394;2022-11-21T06:25:56;24.27;;;23.17;;
21505;SDS011;10914;48.886;9.394;2022-11-21T06:28:22;24.83;;;23.52;;
21505;SDS011;10914;48.886;9.394;2022-11-21T06:30:47;25.95;;;24.65;;
21505;SDS011;10914;48.886;9.394;2022-11-21T06:33:15;26.02;;;24.67;;
21505;SDS011;10914;48.886;9.394;2022-11-21T06:35:41;26.42;;;25.02;;
21505;SDS011;10914;48.886;9.394;2022-11-21T06:38:07;27.15;;;25.50;;
21505;SDS011;10914;48.886;9.394;2022-11-21T06:40:32;27.80;;;26.10;;
21505;SDS011;10914;48.886;9.394;2022-11-21T06:42:58;25.73;;;24.38;;
21505;SDS011;10914;48.886;9.394;2022-11-21T06:45:23;25.93;;;24.37;;
21505;SDS011;10914;48.886;9.394;2022-11-21T06:47:48;25.00;;;23.80;;
21505;SDS011;10914;48.886;9.394;2022-11-21T06:50:13;26.87;;;25.37;;
21505;SDS011;10914;48.886;9.394;2022-11-21T06:52:38;27.05;;;25.50;;
21505;SDS011;10914;48.886;9.394;2022-11-21T06:55:04;29.65;;;27.88;;
21505;SDS011;10914;48.886;9.394;2022-11-21T06:57:29;27.20;;;25.90;;
21505;SDS011;10914;48.886;9.394;2022-11-21T06:59:56;26.52;;;25.08;;
21505;SDS011;10914;48.886;9.394;2022-11-21T07:02:21;27.03;;;25.33;;
21505;SDS011;10914;48.886;9.394;2022-11-21T07:04:47;28.43;;;26.70;;
21505;SDS011;10914;48.886;9.394;2022-11-21T07:07:12;26.50;;;25.02;;
21505;SDS011;10914;48.886;9.394;2022-11-21T07:09:37;28.42;;;26.75;;
21505;SDS011;10914;48.886;9.394;2022-11-21T07:12:02;26.73;;;25.33;;
21505;SDS011;10914;48.886;9.394;2022-11-21T07:14:46;26.20;;;24.77;;
21505;SDS011;10914;48.886;9.394;2022-11-21T07:17:12;27.02;;;25.63;;
21505;SDS011;10914;48.886;9.394;2022-11-21T07:19:37;28.85;;;27.20;;
21505;SDS011;10914;48.886;9.394;2022-11-21T07:22:03;28.33;;;26.55;;
21505;SDS011;10914;48.886;9.394;2022-11-21T07:24:28;27.35;;;25.77;;
21505;SDS011;10914;48.886;9.394;2022-11-21T07:26:53;27.40;;;25.80;;
21505;SDS011;10914;48.886;9.394;2022-11-21T07:29:18;26.90;;;25.37;;
21505;SDS011;10914;48.886;9.394;2022-11-21T07:31:43;25.77;;;24.33;;
21505;SDS011;10914;48.886;9.394;2022-11-21T07:34:09;26.65;;;25.05;;
21505;SDS011;10914;48.886;9.394;2022-11-21T07:36:34;25.60;;;24.17;;
21505;SDS011;10914;48.886;9.394;2022-11-21T07:39:00;26.88;;;25.30;;
21505;SDS011;10914;48.886;9.394;2022-11-21T07:41:25;26.50;;;24.90;;
21505;SDS011;10914;48.886;9.394;2022-11-21T07:43:50;24.50;;;23.20;;
21505;SDS011;10914;48.886;9.394;2022-11-21T07:46:15;25.20;;;23.53;;
21505;SDS011;10914;48.886;9.394;2022-11-21T07:48:40;25.30;;;24.00;;
21505;SDS011;10914;48.886;9.394;2022-11-21T07:51:06;25.10;;;23.65;;
21505;SDS011;10914;48.886;9.394;2022-11-21T07:53:31;25.92;;;24.52;;
21505;SDS011;10914;48.886;9.394;2022-11-21T07:55:57;25.13;;;23.83;;
21505;SDS011;10914;48.886;9.394;2022-11-21T07:58:22;25.13;;;23.83;;
21505;SDS011;10914;48.886;9.394;2022-11-21T08:00:47;25.15;;;23.77;;
21505;SDS011;10914;48.886;9.394;2022-11-21T08:03:13;25.50;;;24.10;;
21505;SDS011;10914;48.886;9.394;2022-11-21T08:05:39;26.85;;;25.58;;
21505;SDS011;10914;48.886;9.394;2022-11-21T08:08:05;28.55;;;26.55;;
21505;SDS011;10914;48.886;9.394;2022-11-21T08:10:30;28.63;;;27.00;;
21505;SDS011;10914;48.886;9.394;2022-11-21T08:12:55;28.25;;;26.73;;
21505;SDS011;10914;48.886;9.394;2022-11-21T08:15:21;27.02;;;25.52;;
21505;SDS011;10914;48.886;9.394;2022-11-21T08:17:46;26.92;;;25.52;;
21505;SDS011;10914;48.886;9.394;2022-11-21T08:20:12;27.38;;;25.90;;
21505;SDS011;10914;48.886;9.394;2022-11-21T08:22:40;27.90;;;26.40;;
21505;SDS011;10914;48.886;9.394;2022-11-21T08:25:06;28.10;;;26.70;;
21505;SDS011;10914;48.886;9.394;2022-11-21T08:27:31;29.55;;;27.90;;
21505;SDS011;10914;48.886;9.394;2022-11-21T08:29:57;29.25;;;27.75;;
21505;SDS011;10914;48.886;9.394;2022-11-21T08:32:22;29.45;;;27.98;;
21505;SDS011;10914;48.886;9.394;2022-11-21T08:34:47;29.98;;;28.38;;
21505;SDS011;10914;48.886;9.394;2022-11-21T08:37:12;28.42;;;26.92;;
21505;SDS011;10914;48.886;9.394;2022-11-21T08:39:37;27.77;;;26.17;;
21505;SDS011;10914;48.886;9.394;2022-11-21T08:42:03;30.50;;;29.00;;
21505;SDS011;10914;48.886;9.394;2022-11-21T08:44:28;29.73;;;28.33;;
21505;SDS011;10914;48.886;9.394;2022-11-21T08:46:54;28.23;;;26.73;;
21505;SDS011;10914;48.886;9.394;2022-11-21T08:49:19;27.98;;;26.50;;
21505;SDS011;10914;48.886;9.394;2022-11-21T08:51:45;28.58;;;26.95;;
21505;SDS011;10914;48.886;9.394;2022-11-21T08:54:13;28.60;;;27.00;;
21505;SDS011;10914;48.886;9.394;2022-11-21T08:56:38;27.37;;;25.97;;
21505;SDS011;10914;48.886;9.394;2022-11-21T08:59:03;26.92;;;25.42;;
21505;SDS011;10914;48.886;9.394;2022-11-21T09:01:28;27.45;;;25.95;;
21505;SDS011;10914;48.886;9.394;2022-11-21T09:03:54;26.30;;;25.00;;
21505;SDS011;10914;48.886;9.394;2022-11-21T09:06:19;26.13;;;24.83;;
21505;SDS011;10914;48.886;9.394;2022-11-21T09:08:44;26.38;;;25.08;;
21505;SDS011;10914;48.886;9.394;2022-11-21T09:11:09;24.20;;;22.80;;
21505;SDS011;10914;48.886;9.394;2022-11-21T09:13:35;24.73;;;23.20;;
21505;SDS011;10914;48.886;9.394;2022-11-21T09:16:00;24.63;;;23.13;;
21505;SDS011;10914;48.886;9.394;2022-11-21T09:18:44;24.23;;;22.70;;
21505;SDS011;10914;48.886;9.394;2022-11-21T09:21:16;24.52;;;23.23;;
21505;SDS011;10914;48.886;9.394;2022-11-21T09:23:41;24.20;;;22.83;;
21505;SDS011;10914;48.886;9.394;2022-11-21T09:26:06;24.92;;;23.50;;
21505;SDS011;10914;48.886;9.394;2022-11-21T09:28:32;24.73;;;23.52;;
21505;SDS011;10914;48.886;9.394;2022-11-21T09:30:57;25.60;;;23.95;;
21505;SDS011;10914;48.886;9.394;2022-11-21T09:33:22;24.87;;;23.47;;
21505;SDS011;10914;48.886;9.394;2022-11-21T09:35:47;25.20;;;23.80;;
21505;SDS011;10914;48.886;9.394;2022-11-21T09:38:12;25.15;;;23.58;;
21505;SDS011;10914;48.886;9.394;2022-11-21T09:40:40;23.60;;;22.30;;
21505;SDS011;10914;48.886;9.394;2022-11-21T09:45:53;24.70;;;23.20;;
21505;SDS011;10914;48.886;9.394;2022-11-21T09:48:18;24.60;;;23.30;;
21505;SDS011;10914;48.886;9.394;2022-11-21T09:50:46;24.73;;;23.15;;
21505;SDS011;10914;48.886;9.394;2022-11-21T09:53:13;25.23;;;23.77;;
21505;SDS011;10914;48.886;9.394;2022-11-21T09:55:41;25.98;;;24.33;;
21505;SDS011;10914;48.886;9.394;2022-11-21T09:59:11;25.92;;;24.20;;
21505;SDS011;10914;48.886;9.394;2022-11-21T10:01:02;27.27;;;25.83;;
21505;SDS011;10914;48.886;9.394;2022-11-21T10:03:28;26.00;;;24.58;;
21505;SDS011;10914;48.886;9.394;2022-11-21T10:06:00;26.27;;;24.80;;
21505;SDS011;10914;48.886;9.394;2022-11-21T10:08:33;25.95;;;24.30;;
21505;SDS011;10914;48.886;9.394;2022-11-21T10:11:07;26.25;;;24.67;;
21505;SDS011;10914;48.886;9.394;2022-11-21T10:26:16;25.58;;;24.08;;
21505;SDS011;10914;48.886;9.394;2022-11-21T10:28:54;25.70;;;24.10;;
21505;SDS011;10914;48.886;9.394;2022-11-21T10:31:21;24.60;;;23.15;;
21505;SDS011;10914;48.886;9.394;2022-11-21T10:33:46;24.33;;;22.92;;
21505;SDS011;10914;48.886;9.394;2022-11-21T10:36:20;24.73;;;23.38;;
21505;SDS011;10914;48.886;9.394;2022-11-21T10:38:47;23.95;;;22.50;;
21505;SDS011;10914;48.886;9.394;2022-11-21T10:41:16;23.10;;;21.90;;
21505;SDS011;10914;48.886;9.394;2022-11-21T10:46:28;25.20;;;23.73;;
21505;SDS011;10914;48.886;9.394;2022-11-21T10:49:00;24.77;;;23.05;;
21505;SDS011;10914;48.886;9.394;2022-11-21T10:51:48;22.65;;;21.50;;
21505;SDS011;10914;48.886;9.394;2022-11-21T10:54:15;22.38;;;21.08;;
21505;SDS011;10914;48.886;9.394;2022-11-21T10:57:05;23.20;;;21.90;;
21505;SDS011;10914;48.886;9.394;2022-11-21T10:59:31;22.38;;;21.17;;
21505;SDS011;10914;48.886;9.394;2022-11-21T11:02:48;23.42;;;22.10;;
21505;SDS011;10914;48.886;9.394;2022-11-21T11:04:42;25.60;;;24.10;;
21505;SDS011;10914;48.886;9.394;2022-11-21T11:07:24;25.85;;;24.35;;
21505;SDS011;10914;48.886;9.394;2022-11-21T11:09:50;25.80;;;24.38;;
21505;SDS011;10914;48.886;9.394;2022-11-21T11:12:28;26.35;;;24.75;;
21505;SDS011;10914;48.886;9.394;2022-11-21T11:15:16;24.25;;;22.85;;
21505;SDS011;10914;48.886;9.394;2022-11-21T11:17:41;24.45;;;22.95;;
21505;SDS011;10914;48.886;9.394;2022-11-21T11:20:27;25.48;;;24.08;;
21505;SDS011;10914;48.886;9.394;2022-11-21T11:22:51;27.83;;;26.13;;
21505;SDS011;10914;48.886;9.394;2022-11-21T11:25:17;28.33;;;26.77;;
21505;SDS011;10914;48.886;9.394;2022-11-21T11:27:42;27.10;;;25.40;;
21505;SDS011;10914;48.886;9.394;2022-11-21T11:30:12;25.38;;;23.88;;
21505;SDS011;10914;48.886;9.394;2022-11-21T11:32:38;28.60;;;26.95;;
21505;SDS011;10914;48.886;9.394;2022-11-21T11:35:23;32.55;;;30.45;;
21505;SDS011;10914;48.886;9.394;2022-11-21T11:37:57;32.78;;;30.85;;
21505;SDS011;10914;48.886;9.394;2022-11-21T11:45:56;26.05;;;24.75;;
21505;SDS011;10914;48.886;9.394;2022-11-21T11:48:43;24.10;;;22.80;;
21505;SDS011;10914;48.886;9.394;2022-11-21T11:51:17;24.10;;;22.80;;
21505;SDS011;10914;48.886;9.394;2022-11-21T11:53:44;22.70;;;21.50;;
21505;SDS011;10914;48.886;9.394;2022-11-21T11:56:16;22.70;;;21.50;;
21505;SDS011;10914;48.886;9.394;2022-11-21T11:58:47;21.80;;;20.67;;
21505;SDS011;10914;48.886;9.394;2022-11-21T12:06:17;21.30;;;20.05;;
21505;SDS011;10914;48.886;9.394;2022-11-21T12:08:45;20.27;;;19.17;;
21505;SDS011;10914;48.886;9.394;2022-11-21T12:11:15;21.40;;;20.30;;
21505;SDS011;10914;48.886;9.394;2022-11-21T12:14:04;20.30;;;19.20;;
21505;SDS011;10914;48.886;9.394;2022-11-21T12:16:31;21.42;;;20.05;;
21505;SDS011;10914;48.886;9.394;2022-11-21T12:19:01;25.58;;;23.52;;
21505;SDS011;10914;48.886;9.394;2022-11-21T12:21:29;25.02;;;23.63;;
21505;SDS011;10914;48.886;9.394;2022-11-21T12:23:55;23.77;;;22.65;;
21505;SDS011;10914;48.886;9.394;2022-11-21T12:41:56;21.07;;;19.97;;
21505;SDS011;10914;48.886;9.394;2022-11-21T12:44:49;21.42;;;20.15;;
21505;SDS011;10914;48.886;9.394;2022-11-21T12:47:32;22.33;;;21.08;;
21505;SDS011;10914;48.886;9.394;2022-11-21T12:50:26;22.02;;;20.92;;
21505;SDS011;10914;48.886;9.394;2022-11-21T12:53:24;21.42;;;20.13;;
21505;SDS011;10914;48.886;9.394;2022-11-21T12:56:18;22.65;;;21.38;;
21505;SDS011;10914;48.886;9.394;2022-11-21T12:58:46;21.92;;;20.65;;
21505;SDS011;10914;48.886;9.394;2022-11-21T13:03:50;21.98;;;20.65;;
21505;SDS011;10914;48.886;9.394;2022-11-21T13:06:20;22.05;;;20.77;;
21505;SDS011;10914;48.886;9.394;2022-11-21T13:08:46;22.38;;;21.10;;
21505;SDS011;10914;48.886;9.394;2022-11-21T13:11:19;21.90;;;20.80;;
21505;SDS011;10914;48.886;9.394;2022-11-21T13:16:35;21.98;;;20.58;;
21505;SDS011;10914;48.886;9.394;2022-11-21T13:19:13;21.73;;;20.42;;
21505;SDS011;10914;48.886;9.394;2022-11-21T13:24:06;21.97;;;20.67;;
21505;SDS011;10914;48.886;9.394;2022-11-21T13:29:07;23.58;;;22.15;;
21505;SDS011;10914;48.886;9.394;2022-11-21T13:31:33;23.98;;;22.40;;
21505;SDS011;10914;48.886;9.394;2022-11-21T13:34:00;23.77;;;22.38;;
21505;SDS011;10914;48.886;9.394;2022-11-21T13:47:02;29.45;;;27.55;;
21505;SDS011;10914;48.886;9.394;2022-11-21T13:52:01;29.27;;;27.67;;
21505;SDS011;10914;48.886;9.394;2022-11-21T13:54:32;28.88;;;27.27;;
21505;SDS011;10914;48.886;9.394;2022-11-21T13:57:09;27.20;;;25.58;;
21505;SDS011;10914;48.886;9.394;2022-11-21T14:06:55;27.95;;;26.48;;
21505;SDS011;10914;48.886;9.394;2022-11-21T14:09:21;28.88;;;27.20;;
21505;SDS011;10914;48.886;9.394;2022-11-21T14:11:52;34.97;;;32.97;;
21505;SDS011;10914;48.886;9.394;2022-11-21T14:14:27;34.97;;;32.90;;
21505;SDS011;10914;48.886;9.394;2022-11-21T14:16:56;33.28;;;31.27;;
21505;SDS011;10914;48.886;9.394;2022-11-21T14:19:24;34.45;;;32.47;;
21505;SDS011;10914;48.886;9.394;2022-11-21T14:21:51;28.77;;;27.27;;
21505;SDS011;10914;48.886;9.394;2022-11-21T14:24:17;25.58;;;24.13;;
21505;SDS011;10914;48.886;9.394;2022-11-21T14:26:43;23.98;;;22.75;;
21505;SDS011;10914;48.886;9.394;2022-11-21T14:31:47;24.33;;;22.70;;
21505;SDS011;10914;48.886;9.394;2022-11-21T14:34:22;24.05;;;22.75;;
21505;SDS011;10914;48.886;9.394;2022-11-21T14:36:47;24.70;;;23.27;;
21505;SDS011;10914;48.886;9.394;2022-11-21T14:39:18;24.63;;;23.20;;
21505;SDS011;10914;48.886;9.394;2022-11-21T14:41:50;24.30;;;22.63;;
21505;SDS011;10914;48.886;9.394;2022-11-21T14:44:16;24.90;;;23.35;;
21505;SDS011;10914;48.886;9.394;2022-11-21T14:46:42;26.40;;;24.70;;
21505;SDS011;10914;48.886;9.394;2022-11-21T14:51:39;27.08;;;25.40;;
21505;SDS011;10914;48.886;9.394;2022-11-21T14:54:04;27.58;;;25.95;;
21505;SDS011;10914;48.886;9.394;2022-11-21T14:56:36;27.67;;;25.88;;
21505;SDS011;10914;48.886;9.394;2022-11-21T14:59:04;26.38;;;24.85;;
21505;SDS011;10914;48.886;9.394;2022-11-21T15:01:35;26.60;;;24.83;;
21505;SDS011;10914;48.886;9.394;2022-11-21T15:04:02;26.50;;;24.80;;
21505;SDS011;10914;48.886;9.394;2022-11-21T15:06:28;27.80;;;26.30;;
21505;SDS011;10914;48.886;9.394;2022-11-21T15:08:57;27.40;;;25.75;;
21505;SDS011;10914;48.886;9.394;2022-11-21T15:11:24;29.75;;;28.08;;
21505;SDS011;10914;48.886;9.394;2022-11-21T15:13:53;29.08;;;27.35;;
21505;SDS011;10914;48.886;9.394;2022-11-21T15:16:21;31.27;;;29.48;;
21505;SDS011;10914;48.886;9.394;2022-11-21T15:18:47;31.35;;;29.42;;
21505;SDS011;10914;48.886;9.394;2022-11-21T15:21:12;33.97;;;31.97;;
21505;SDS011;10914;48.886;9.394;2022-11-21T15:23:38;33.38;;;31.40;;
21505;SDS011;10914;48.886;9.394;2022-11-21T15:26:04;32.65;;;30.70;;
21505;SDS011;10914;48.886;9.394;2022-11-21T15:28:30;31.13;;;29.38;;
21505;SDS011;10914;48.886;9.394;2022-11-21T15:33:54;28.85;;;26.77;;
21505;SDS011;10914;48.886;9.394;2022-11-21T15:36:19;29.98;;;27.90;;
21505;SDS011;10914;48.886;9.394;2022-11-21T15:39:05;27.52;;;25.95;;
21505;SDS011;10914;48.886;9.394;2022-11-21T15:41:31;27.02;;;25.40;;
21505;SDS011;10914;48.886;9.394;2022-11-21T15:46:26;28.25;;;26.45;;
21505;SDS011;10914;48.886;9.394;2022-11-21T15:48:52;30.45;;;28.35;;
21505;SDS011;10914;48.886;9.394;2022-11-21T15:51:21;31.45;;;28.98;;
21505;SDS011;10914;48.886;9.394;2022-11-21T15:53:48;30.52;;;28.42;;
21505;SDS011;10914;48.886;9.394;2022-11-21T15:56:14;28.48;;;26.55;;
21505;SDS011;10914;48.886;9.394;2022-11-21T15:58:39;28.23;;;26.33;;